PWSweather.com
Personal Weather Stations
Station Observations
KMNGREYC2
Grey Cloud Island, Grey Cloud Island, MN 55071

Grey Cloud IslandGrey Cloud Island, MN 55071

Lat: 44.799333, Lon: -92.987851

Elevation: 700

Station Type: Davis VP2

www.jagielski.com/weather/conditions.htm

High Low Average
Temperature 89.4°F31.9°C 60.0°F15.6°C 75.1°F23.9°C
Dew Point 68.6°F20.3°C 57.3°F14.1°C 61.2°F16.2°C
Winds 3.0 mph 4.8 kmh Calm Calm Calm SCalm S
Wind Gusts 9.0 mph14.5 kmh -- 3.0 mph4.8 kmh
Humidity 96% 38% 66%
Pressure 29.83 in1010.2 mb 29.78 in1008.5 mb -
Precipitation 0.00 in0.0 mm - -
Hour Temp Dew Point Humidity Winds Wind Gusts Pressure Precip Precip Rate Daily Precip Total
12:00 AM 64.3°F17.9°C 59.0°F15.0°C 83% Calm Calm -- 29.79 in1008.8 mb 0.00 in0.0 mm 0.00 in0.0 mm 0.00 in0.0 mm
12:15 AM 63.9°F17.7°C 59.0°F15.0°C 84% Calm Calm -- 29.79 in1008.8 mb 0.00 in0.0 mm 0.00 in0.0 mm 0.00 in0.0 mm
12:30 AM 63.4°F17.4°C 58.8°F14.9°C 85% Calm Calm -- 29.79 in1008.8 mb 0.00 in0.0 mm 0.00 in0.0 mm 0.00 in0.0 mm
12:45 AM 63.2°F17.3°C 58.6°F14.8°C 85% Calm Calm -- 29.78 in1008.5 mb 0.00 in0.0 mm 0.00 in0.0 mm 0.00 in0.0 mm
01:00 AM 62.9°F17.2°C 58.7°F14.8°C 86% Calm Calm -- 29.78 in1008.5 mb 0.00 in0.0 mm 0.00 in0.0 mm 0.00 in0.0 mm
01:15 AM 62.9°F17.2°C 59.3°F15.2°C 88% Calm Calm -- 29.78 in1008.5 mb 0.00 in0.0 mm 0.00 in0.0 mm 0.00 in0.0 mm
01:30 AM 62.8°F17.1°C 59.2°F15.1°C 88% Calm Calm 1.0 mph1.6 kmh 29.79 in1008.8 mb 0.00 in0.0 mm 0.00 in0.0 mm 0.00 in0.0 mm
01:45 AM 62.8°F17.1°C 59.5°F15.3°C 89% Calm Calm -- 29.79 in1008.8 mb 0.00 in0.0 mm 0.00 in0.0 mm 0.00 in0.0 mm
02:00 AM 62.7°F17.1°C 59.4°F15.2°C 89% Calm Calm -- 29.79 in1008.8 mb 0.00 in0.0 mm 0.00 in0.0 mm 0.00 in0.0 mm
02:15 AM 62.6°F17.0°C 59.3°F15.2°C 89% Calm Calm -- 29.79 in1008.8 mb 0.00 in0.0 mm 0.00 in0.0 mm 0.00 in0.0 mm
02:30 AM 62.6°F17.0°C 59.3°F15.2°C 89% Calm Calm -- 29.79 in1008.8 mb 0.00 in0.0 mm 0.00 in0.0 mm 0.00 in0.0 mm
02:45 AM 62.4°F16.9°C 58.8°F14.9°C 88% Calm Calm -- 29.79 in1008.8 mb 0.00 in0.0 mm 0.00 in0.0 mm 0.00 in0.0 mm
03:00 AM 62.2°F16.8°C 58.6°F14.8°C 88% Calm Calm -- 29.79 in1008.8 mb 0.00 in0.0 mm 0.00 in0.0 mm 0.00 in0.0 mm
03:15 AM 62.0°F16.7°C 58.4°F14.7°C 88% Calm Calm -- 29.79 in1008.8 mb 0.00 in0.0 mm 0.00 in0.0 mm 0.00 in0.0 mm
03:30 AM 61.7°F16.5°C 58.4°F14.7°C 89% Calm Calm -- 29.79 in1008.8 mb 0.00 in0.0 mm 0.00 in0.0 mm 0.00 in0.0 mm
03:45 AM 61.2°F16.2°C 57.9°F14.4°C 89% Calm Calm -- 29.79 in1008.8 mb 0.00 in0.0 mm 0.00 in0.0 mm 0.00 in0.0 mm
04:00 AM 60.9°F16.1°C 57.6°F14.2°C 89% Calm Calm -- 29.79 in1008.8 mb 0.00 in0.0 mm 0.00 in0.0 mm 0.00 in0.0 mm
04:15 AM 60.6°F15.9°C 57.7°F14.3°C 90% Calm Calm -- 29.80 in1009.1 mb 0.00 in0.0 mm 0.00 in0.0 mm 0.00 in0.0 mm
04:30 AM 60.4°F15.8°C 57.5°F14.2°C 90% Calm Calm -- 29.80 in1009.1 mb 0.00 in0.0 mm 0.00 in0.0 mm 0.00 in0.0 mm
04:45 AM 60.2°F15.7°C 57.6°F14.2°C 91% Calm Calm -- 29.80 in1009.1 mb 0.00 in0.0 mm 0.00 in0.0 mm 0.00 in0.0 mm
05:00 AM 60.1°F15.6°C 57.8°F14.3°C 92% Calm Calm -- 29.80 in1009.1 mb 0.00 in0.0 mm 0.00 in0.0 mm 0.00 in0.0 mm
05:15 AM 60.0°F15.6°C 57.7°F14.3°C 92% Calm Calm -- 29.80 in1009.1 mb 0.00 in0.0 mm 0.00 in0.0 mm 0.00 in0.0 mm
05:30 AM 60.1°F15.6°C 57.8°F14.3°C 92% Calm Calm -- 29.81 in1009.5 mb 0.00 in0.0 mm 0.00 in0.0 mm 0.00 in0.0 mm
05:45 AM 60.3°F15.7°C 58.3°F14.6°C 93% Calm Calm -- 29.81 in1009.5 mb 0.00 in0.0 mm 0.00 in0.0 mm 0.00 in0.0 mm
06:00 AM 60.3°F15.7°C 58.3°F14.6°C 93% Calm Calm -- 29.82 in1009.8 mb 0.00 in0.0 mm 0.00 in0.0 mm 0.00 in0.0 mm
06:15 AM 60.5°F15.8°C 58.8°F14.9°C 94% Calm Calm -- 29.82 in1009.8 mb 0.00 in0.0 mm 0.00 in0.0 mm 0.00 in0.0 mm
06:30 AM 60.8°F16.0°C 59.1°F15.1°C 94% Calm Calm -- 29.82 in1009.8 mb 0.00 in0.0 mm 0.00 in0.0 mm 0.00 in0.0 mm
06:45 AM 61.1°F16.2°C 59.4°F15.2°C 94% Calm Calm -- 29.82 in1009.8 mb 0.00 in0.0 mm 0.00 in0.0 mm 0.00 in0.0 mm
07:00 AM 61.7°F16.5°C 60.3°F15.7°C 95% Calm Calm -- 29.82 in1009.8 mb 0.00 in0.0 mm 0.00 in0.0 mm 0.00 in0.0 mm
07:15 AM 62.3°F16.8°C 61.2°F16.2°C 96% Calm Calm -- 29.83 in1010.2 mb 0.00 in0.0 mm 0.00 in0.0 mm 0.00 in0.0 mm
07:30 AM 62.9°F17.2°C 61.5°F16.4°C 95% Calm Calm -- 29.83 in1010.2 mb 0.00 in0.0 mm 0.00 in0.0 mm 0.00 in0.0 mm
07:45 AM 63.3°F17.4°C 61.9°F16.6°C 95% Calm Calm -- 29.83 in1010.2 mb 0.00 in0.0 mm 0.00 in0.0 mm 0.00 in0.0 mm
08:00 AM 63.8°F17.7°C 62.3°F16.8°C 95% Calm Calm 1.0 mph1.6 kmh 29.83 in1010.2 mb 0.00 in0.0 mm 0.00 in0.0 mm 0.00 in0.0 mm
08:15 AM 64.7°F18.2°C 62.6°F17.0°C 93% Calm Calm 1.0 mph1.6 kmh 29.83 in1010.2 mb 0.00 in0.0 mm 0.00 in0.0 mm 0.00 in0.0 mm
08:30 AM 65.8°F18.8°C 63.1°F17.3°C 91% Calm Calm 1.0 mph1.6 kmh 29.83 in1010.2 mb 0.00 in0.0 mm 0.00 in0.0 mm 0.00 in0.0 mm
08:45 AM 66.9°F19.4°C 63.6°F17.6°C 89% Calm Calm 1.0 mph1.6 kmh 29.83 in1010.2 mb 0.00 in0.0 mm 0.00 in0.0 mm 0.00 in0.0 mm
09:00 AM 68.1°F20.1°C 63.8°F17.7°C 86% Calm Calm 2.0 mph3.2 kmh 29.83 in1010.2 mb 0.00 in0.0 mm 0.00 in0.0 mm 0.00 in0.0 mm
09:15 AM 69.6°F20.9°C 64.6°F18.1°C 84% Calm Calm 2.0 mph3.2 kmh 29.83 in1010.2 mb 0.00 in0.0 mm 0.00 in0.0 mm 0.00 in0.0 mm
09:30 AM 71.0°F21.7°C 65.6°F18.7°C 83% Calm Calm 2.0 mph3.2 kmh 29.83 in1010.2 mb 0.00 in0.0 mm 0.00 in0.0 mm 0.00 in0.0 mm
09:45 AM 72.5°F22.5°C 66.3°F19.1°C 81% Calm Calm 2.0 mph3.2 kmh 29.83 in1010.2 mb 0.00 in0.0 mm 0.00 in0.0 mm 0.00 in0.0 mm
10:00 AM 73.9°F23.3°C 67.0°F19.4°C 79% Calm Calm 3.0 mph4.8 kmh 29.83 in1010.2 mb 0.00 in0.0 mm 0.00 in0.0 mm 0.00 in0.0 mm
10:15 AM 75.7°F24.3°C 68.4°F20.2°C 78% Calm Calm 4.0 mph6.4 kmh 29.83 in1010.2 mb 0.00 in0.0 mm 0.00 in0.0 mm 0.00 in0.0 mm
10:30 AM 77.5°F25.3°C 68.6°F20.3°C 74% 2.0 mph SW3.2 kmh SW 7.0 mph11.3 kmh 29.83 in1010.2 mb 0.00 in0.0 mm 0.00 in0.0 mm 0.00 in0.0 mm
10:45 AM 78.9°F26.1°C 68.3°F20.2°C 70% Calm Calm 5.0 mph8.0 kmh 29.83 in1010.2 mb 0.00 in0.0 mm 0.00 in0.0 mm 0.00 in0.0 mm
11:00 AM 80.1°F26.7°C 68.6°F20.3°C 68% Calm Calm 8.0 mph12.9 kmh 29.83 in1010.2 mb 0.00 in0.0 mm 0.00 in0.0 mm 0.00 in0.0 mm
11:15 AM 81.1°F27.3°C 67.8°F19.9°C 64% 1.0 mph WSW1.6 kmh WSW 6.0 mph9.7 kmh 29.83 in1010.2 mb 0.00 in0.0 mm 0.00 in0.0 mm 0.00 in0.0 mm
11:30 AM 82.0°F27.8°C 66.8°F19.3°C 60% 1.0 mph SSE1.6 kmh SSE 7.0 mph11.3 kmh 29.82 in1009.8 mb 0.00 in0.0 mm 0.00 in0.0 mm 0.00 in0.0 mm
11:45 AM 82.9°F28.3°C 66.1°F18.9°C 57% Calm Calm 7.0 mph11.3 kmh 29.82 in1009.8 mb 0.00 in0.0 mm 0.00 in0.0 mm 0.00 in0.0 mm
12:00 PM 83.9°F28.8°C 65.5°F18.6°C 54% 1.0 mph WSW1.6 kmh WSW 7.0 mph11.3 kmh 29.82 in1009.8 mb 0.00 in0.0 mm 0.00 in0.0 mm 0.00 in0.0 mm
12:15 PM 85.1°F29.5°C 66.1°F18.9°C 53% Calm Calm 6.0 mph9.7 kmh 29.82 in1009.8 mb 0.00 in0.0 mm 0.00 in0.0 mm 0.00 in0.0 mm
12:30 PM 86.0°F30.0°C 64.6°F18.1°C 49% 1.0 mph SSW1.6 kmh SSW 9.0 mph14.5 kmh 29.82 in1009.8 mb 0.00 in0.0 mm 0.00 in0.0 mm 0.00 in0.0 mm
12:45 PM 86.7°F30.4°C 67.5°F19.7°C 53% 1.0 mph WSW1.6 kmh WSW 4.0 mph6.4 kmh 29.82 in1009.8 mb 0.00 in0.0 mm 0.00 in0.0 mm 0.00 in0.0 mm
01:00 PM 87.1°F30.6°C 65.1°F18.4°C 48% Calm Calm 8.0 mph12.9 kmh 29.81 in1009.5 mb 0.00 in0.0 mm 0.00 in0.0 mm 0.00 in0.0 mm
01:15 PM 87.4°F30.8°C 64.7°F18.2°C 47% Calm Calm 9.0 mph14.5 kmh 29.81 in1009.5 mb 0.00 in0.0 mm 0.00 in0.0 mm 0.00 in0.0 mm
01:30 PM 87.7°F30.9°C 66.2°F19.0°C 49% 2.0 mph WSW3.2 kmh WSW 9.0 mph14.5 kmh 29.81 in1009.5 mb 0.00 in0.0 mm 0.00 in0.0 mm 0.00 in0.0 mm
01:45 PM 87.8°F31.0°C 64.5°F18.1°C 46% 1.0 mph W1.6 kmh W 9.0 mph14.5 kmh 29.81 in1009.5 mb 0.00 in0.0 mm 0.00 in0.0 mm 0.00 in0.0 mm
02:00 PM 87.7°F30.9°C 63.8°F17.7°C 45% Calm Calm 9.0 mph14.5 kmh 29.80 in1009.1 mb 0.00 in0.0 mm 0.00 in0.0 mm 0.00 in0.0 mm
02:15 PM 88.3°F31.3°C 64.3°F17.9°C 45% 1.0 mph WNW1.6 kmh WNW 6.0 mph9.7 kmh 29.80 in1009.1 mb 0.00 in0.0 mm 0.00 in0.0 mm 0.00 in0.0 mm
02:30 PM 88.8°F31.6°C 61.4°F16.3°C 40% Calm Calm 6.0 mph9.7 kmh 29.80 in1009.1 mb 0.00 in0.0 mm 0.00 in0.0 mm 0.00 in0.0 mm
02:45 PM 89.2°F31.8°C 61.8°F16.6°C 40% 1.0 mph SSE1.6 kmh SSE 6.0 mph9.7 kmh 29.80 in1009.1 mb 0.00 in0.0 mm 0.00 in0.0 mm 0.00 in0.0 mm
03:00 PM 89.3°F31.8°C 61.8°F16.6°C 40% Calm Calm 9.0 mph14.5 kmh 29.80 in1009.1 mb 0.00 in0.0 mm 0.00 in0.0 mm 0.00 in0.0 mm
03:15 PM 89.4°F31.9°C 61.2°F16.2°C 39% 1.0 mph WSW1.6 kmh WSW 6.0 mph9.7 kmh 29.80 in1009.1 mb 0.00 in0.0 mm 0.00 in0.0 mm 0.00 in0.0 mm
03:30 PM 89.4°F31.9°C 60.5°F15.8°C 38% Calm Calm 7.0 mph11.3 kmh 29.80 in1009.1 mb 0.00 in0.0 mm 0.00 in0.0 mm 0.00 in0.0 mm
03:45 PM 89.4°F31.9°C 61.2°F16.2°C 39% Calm Calm 7.0 mph11.3 kmh 29.80 in1009.1 mb 0.00 in0.0 mm 0.00 in0.0 mm 0.00 in0.0 mm
04:00 PM 89.2°F31.8°C 61.0°F16.1°C 39% Calm Calm 8.0 mph12.9 kmh 29.80 in1009.1 mb 0.00 in0.0 mm 0.00 in0.0 mm 0.00 in0.0 mm
04:15 PM 89.0°F31.7°C 63.0°F17.2°C 42% Calm Calm 6.0 mph9.7 kmh 29.80 in1009.1 mb 0.00 in0.0 mm 0.00 in0.0 mm 0.00 in0.0 mm
04:30 PM 88.9°F31.6°C 61.5°F16.4°C 40% 1.0 mph W1.6 kmh W 6.0 mph9.7 kmh 29.79 in1008.8 mb 0.00 in0.0 mm 0.00 in0.0 mm 0.00 in0.0 mm
04:45 PM 88.7°F31.5°C 62.0°F16.7°C 41% Calm Calm 7.0 mph11.3 kmh 29.79 in1008.8 mb 0.00 in0.0 mm 0.00 in0.0 mm 0.00 in0.0 mm
05:00 PM 88.2°F31.2°C 60.9°F16.1°C 40% Calm Calm 9.0 mph14.5 kmh 29.79 in1008.8 mb 0.00 in0.0 mm 0.00 in0.0 mm 0.00 in0.0 mm
05:15 PM 87.7°F30.9°C 61.8°F16.6°C 42% 3.0 mph NNE4.8 kmh NNE 5.0 mph8.0 kmh 29.79 in1008.8 mb 0.00 in0.0 mm 0.00 in0.0 mm 0.00 in0.0 mm
05:30 PM 87.4°F30.8°C 62.2°F16.8°C 43% Calm Calm 5.0 mph8.0 kmh 29.78 in1008.5 mb 0.00 in0.0 mm 0.00 in0.0 mm 0.00 in0.0 mm
05:45 PM 87.0°F30.6°C 59.8°F15.4°C 40% 2.0 mph SW3.2 kmh SW 6.0 mph9.7 kmh 29.78 in1008.5 mb 0.00 in0.0 mm 0.00 in0.0 mm 0.00 in0.0 mm
06:00 PM 86.8°F30.4°C 61.0°F16.1°C 42% Calm Calm 6.0 mph9.7 kmh 29.78 in1008.5 mb 0.00 in0.0 mm 0.00 in0.0 mm 0.00 in0.0 mm
06:15 PM 86.4°F30.2°C 60.6°F15.9°C 42% Calm Calm 6.0 mph9.7 kmh 29.78 in1008.5 mb 0.00 in0.0 mm 0.00 in0.0 mm 0.00 in0.0 mm
06:30 PM 85.8°F29.9°C 60.7°F15.9°C 43% Calm Calm 6.0 mph9.7 kmh 29.78 in1008.5 mb 0.00 in0.0 mm 0.00 in0.0 mm 0.00 in0.0 mm
06:45 PM 85.3°F29.6°C 60.3°F15.7°C 43% 2.0 mph E3.2 kmh E 5.0 mph8.0 kmh 29.78 in1008.5 mb 0.00 in0.0 mm 0.00 in0.0 mm 0.00 in0.0 mm
07:00 PM 84.8°F29.3°C 59.2°F15.1°C 42% 1.0 mph NW1.6 kmh NW 5.0 mph8.0 kmh 29.78 in1008.5 mb 0.00 in0.0 mm 0.00 in0.0 mm 0.00 in0.0 mm
07:15 PM 84.3°F29.1°C 58.1°F14.5°C 41% Calm Calm 5.0 mph8.0 kmh 29.78 in1008.5 mb 0.00 in0.0 mm 0.00 in0.0 mm 0.00 in0.0 mm
07:30 PM 83.8°F28.8°C 58.3°F14.6°C 42% Calm Calm 5.0 mph8.0 kmh 29.78 in1008.5 mb 0.00 in0.0 mm 0.00 in0.0 mm 0.00 in0.0 mm
07:45 PM 83.4°F28.6°C 57.3°F14.1°C 41% Calm Calm 2.0 mph3.2 kmh 29.78 in1008.5 mb 0.00 in0.0 mm 0.00 in0.0 mm 0.00 in0.0 mm
08:00 PM 83.0°F28.3°C 57.6°F14.2°C 42% Calm Calm 5.0 mph8.0 kmh 29.78 in1008.5 mb 0.00 in0.0 mm 0.00 in0.0 mm 0.00 in0.0 mm
08:15 PM 82.4°F28.0°C 58.3°F14.6°C 44% 1.0 mph E1.6 kmh E 2.0 mph3.2 kmh 29.78 in1008.5 mb 0.00 in0.0 mm 0.00 in0.0 mm 0.00 in0.0 mm
08:30 PM 81.8°F27.7°C 59.0°F15.0°C 46% Calm Calm 3.0 mph4.8 kmh 29.78 in1008.5 mb 0.00 in0.0 mm 0.00 in0.0 mm 0.00 in0.0 mm
08:45 PM 81.2°F27.3°C 59.7°F15.4°C 48% Calm Calm 1.0 mph1.6 kmh 29.78 in1008.5 mb 0.00 in0.0 mm 0.00 in0.0 mm 0.00 in0.0 mm
09:00 PM 80.2°F26.8°C 60.5°F15.8°C 51% Calm Calm 2.0 mph3.2 kmh 29.79 in1008.8 mb 0.00 in0.0 mm 0.00 in0.0 mm 0.00 in0.0 mm
09:15 PM 78.6°F25.9°C 61.6°F16.4°C 56% Calm Calm 2.0 mph3.2 kmh 29.79 in1008.8 mb 0.00 in0.0 mm 0.00 in0.0 mm 0.00 in0.0 mm
09:30 PM 77.2°F25.1°C 60.8°F16.0°C 57% Calm Calm 2.0 mph3.2 kmh 29.79 in1008.8 mb 0.00 in0.0 mm 0.00 in0.0 mm 0.00 in0.0 mm
09:45 PM 76.4°F24.7°C 60.6°F15.9°C 58% Calm Calm 2.0 mph3.2 kmh 29.80 in1009.1 mb 0.00 in0.0 mm 0.00 in0.0 mm 0.00 in0.0 mm
10:00 PM 75.6°F24.2°C 59.8°F15.4°C 58% Calm Calm 2.0 mph3.2 kmh 29.80 in1009.1 mb 0.00 in0.0 mm 0.00 in0.0 mm 0.00 in0.0 mm
10:15 PM 75.1°F23.9°C 59.8°F15.4°C 59% Calm Calm 1.0 mph1.6 kmh 29.81 in1009.5 mb 0.00 in0.0 mm 0.00 in0.0 mm 0.00 in0.0 mm
10:30 PM 74.6°F23.7°C 59.3°F15.2°C 59% Calm Calm 2.0 mph3.2 kmh 29.81 in1009.5 mb 0.00 in0.0 mm 0.00 in0.0 mm 0.00 in0.0 mm
10:45 PM 74.1°F23.4°C 59.3°F15.2°C 60% Calm Calm 1.0 mph1.6 kmh 29.81 in1009.5 mb 0.00 in0.0 mm 0.00 in0.0 mm 0.00 in0.0 mm
11:00 PM 73.5°F23.1°C 59.2°F15.1°C 61% Calm Calm 4.0 mph6.4 kmh 29.82 in1009.8 mb 0.00 in0.0 mm 0.00 in0.0 mm 0.00 in0.0 mm
11:15 PM 72.9°F22.7°C 58.2°F14.6°C 60% Calm Calm 3.0 mph4.8 kmh 29.82 in1009.8 mb 0.00 in0.0 mm 0.00 in0.0 mm 0.00 in0.0 mm
11:30 PM 73.0°F22.8°C 58.3°F14.6°C 60% Calm Calm 5.0 mph8.0 kmh 29.82 in1009.8 mb 0.00 in0.0 mm 0.00 in0.0 mm 0.00 in0.0 mm
11:45 PM 73.3°F22.9°C 58.6°F14.8°C 60% Calm Calm 3.0 mph4.8 kmh 29.82 in1009.8 mb 0.00 in0.0 mm 0.00 in0.0 mm 0.00 in0.0 mm